X  Cerrar Datos meteorológicos de aviación METAR     EBBR Brussels Airport
Temperatura
23°C Temperatura
19°C Punto de rocío
78% Humedad



Viento
2 KM/H
1 MPH
0 M/S
1 NUDO



Calma
Norte
Condiciones actuales

Claro Claro
Presión 1010.92 (hPa) - 29.85 (inHg)
Visibilidad 6.2 (milla) - 10 (km)
Aeropuerto
Código de aeropuerto EBBR

localidad: Brussels Airport
Distancia: 14 (km)

Metar:
EBBR 122250Z VRB01KT CAVOK 23/19 Q1011 NOSIG

Hora: 08-13-2020 00:50 CEST